Time;durP1;ratioP1;P1;durP2;ratioP2;P2;SDS_P1;SDS_P2;PMS_P1;PMS_P2;Temp;Humidity;BMP_temperature;BMP_pressure;BME280_temperature;BME280_humidity;BME280_pressure;Samples;Min_cycle;Max_cycle;Signal;HPM_P1;HPM_P2
2021/04/25 00:00:21;;;;;;;15.23;5.10;;;3.60;99.90;;;;;;3576374;40;20033;-60
2021/04/25 00:02:47;;;;;;;12.52;4.72;;;3.70;99.90;;;;;;3584578;40;20558;-60
2021/04/25 00:05:15;;;;;;;17.25;5.70;;;3.70;99.90;;;;;;3578057;40;20043;-60
2021/04/25 00:07:42;;;;;;;49.47;21.63;;;3.70;99.90;;;;;;3578942;40;20029;-60
2021/04/25 00:10:10;;;;;;;73.40;28.33;;;3.80;99.90;;;;;;3577744;40;20059;-60
2021/04/25 00:12:41;;;;;;;40.75;17.30;;;3.80;99.90;;;;;;3576538;40;20403;-60
2021/04/25 00:15:13;;;;;;;29.23;11.60;;;3.80;99.90;;;;;;3576701;40;20029;-60
2021/04/25 00:17:39;;;;;;;22.83;8.55;;;3.90;99.90;;;;;;3572303;40;20063;-60
2021/04/25 00:20:07;;;;;;;18.17;7.03;;;3.80;99.90;;;;;;3574586;40;20777;-60
2021/04/25 00:22:33;;;;;;;18.40;8.02;;;3.90;99.90;;;;;;3573429;40;20084;-60
2021/04/25 00:24:59;;;;;;;17.85;6.30;;;3.90;99.90;;;;;;3572292;40;20033;-60
2021/04/25 00:27:27;;;;;;;10.95;4.72;;;3.90;99.90;;;;;;3571608;40;20053;-60
2021/04/25 00:29:52;;;;;;;11.32;5.20;;;4.00;99.90;;;;;;3570815;40;20033;-60
2021/04/25 00:32:18;;;;;;;13.60;4.60;;;4.00;99.90;;;;;;3577193;40;20890;-60
2021/04/25 00:34:44;;;;;;;11.43;4.05;;;4.00;99.90;;;;;;3569135;40;20033;-60
2021/04/25 00:37:09;;;;;;;7.45;3.45;;;4.10;99.90;;;;;;3568680;40;20048;-60
2021/04/25 00:39:36;;;;;;;8.57;3.50;;;4.10;99.90;;;;;;3569637;40;20055;-60
2021/04/25 00:42:02;;;;;;;12.20;3.88;;;4.20;99.90;;;;;;3569581;40;20307;-60
2021/04/25 00:44:27;;;;;;;7.30;3.22;;;4.20;99.90;;;;;;3571529;40;20048;-60
2021/04/25 00:46:53;;;;;;;8.85;2.72;;;4.30;99.90;;;;;;3571844;40;20045;-60
2021/04/25 00:49:19;;;;;;;7.38;3.28;;;4.30;99.90;;;;;;3572428;40;20053;-60
2021/04/25 00:51:46;;;;;;;12.82;3.47;;;4.30;99.90;;;;;;3572387;40;20043;-60
2021/04/25 00:54:12;;;;;;;14.15;5.70;;;4.20;99.90;;;;;;3574598;40;20169;-60
2021/04/25 00:56:38;;;;;;;15.50;7.70;;;4.20;99.90;;;;;;3574569;40;20457;-60
2021/04/25 00:59:05;;;;;;;18.88;7.72;;;4.20;99.90;;;;;;3570893;40;20312;-60
2021/04/25 01:01:30;;;;;;;14.40;6.82;;;4.20;99.90;;;;;;3569953;40;20099;-60
2021/04/25 01:03:56;;;;;;;19.38;8.63;;;4.30;99.90;;;;;;3568650;40;20045;-60
2021/04/25 01:06:22;;;;;;;11.13;4.90;;;4.30;99.90;;;;;;3568931;40;20472;-60
2021/04/25 01:08:48;;;;;;;11.38;4.90;;;4.30;99.90;;;;;;3569476;40;20040;-60
2021/04/25 01:11:15;;;;;;;15.73;4.75;;;4.20;99.90;;;;;;3570036;40;20095;-61
2021/04/25 01:13:41;;;;;;;11.55;4.55;;;4.20;99.90;;;;;;3570653;40;20040;-60
2021/04/25 01:16:07;;;;;;;10.93;4.40;;;4.30;99.90;;;;;;3571364;40;20416;-61
2021/04/25 01:18:33;;;;;;;10.88;4.70;;;4.30;99.90;;;;;;3572148;40;20035;-60
2021/04/25 01:21:00;;;;;;;13.50;5.20;;;4.30;99.90;;;;;;3573461;40;20035;-60
2021/04/25 01:23:26;;;;;;;10.27;4.10;;;4.30;99.90;;;;;;3574061;40;20025;-61
2021/04/25 01:25:52;;;;;;;15.18;4.68;;;4.20;99.90;;;;;;3574719;40;20122;-61
2021/04/25 01:28:17;;;;;;;10.02;3.28;;;4.20;99.90;;;;;;3571423;40;20082;-61
2021/04/25 01:30:43;;;;;;;7.95;2.90;;;4.30;99.90;;;;;;3570129;40;20100;-61
2021/04/25 01:33:09;;;;;;;11.05;3.45;;;4.40;99.90;;;;;;3576914;40;20084;-61
2021/04/25 01:35:35;;;;;;;9.07;4.20;;;4.40;99.90;;;;;;3584803;40;20045;-60
2021/04/25 01:38:00;;;;;;;9.65;3.50;;;4.50;99.90;;;;;;3576993;40;20091;-61
2021/04/25 01:40:27;;;;;;;14.48;4.10;;;4.50;99.90;;;;;;3575906;40;20036;-61
2021/04/25 01:42:54;;;;;;;8.50;3.67;;;4.60;99.90;;;;;;3570043;40;20074;-61
2021/04/25 01:45:20;;;;;;;7.53;3.78;;;4.60;99.90;;;;;;3571631;40;20091;-61
2021/04/25 01:47:52;;;;;;;9.02;4.30;;;4.50;99.90;;;;;;3573292;40;20521;-61
2021/04/25 01:50:20;;;;;;;10.52;3.30;;;4.50;99.90;;;;;;3573053;40;20059;-60
2021/04/25 01:52:46;;;;;;;7.20;3.25;;;4.40;99.90;;;;;;3573798;40;20040;-61
2021/04/25 01:55:13;;;;;;;9.07;3.58;;;4.40;99.90;;;;;;3574291;40;20786;-61
2021/04/25 01:57:39;;;;;;;5.78;2.45;;;4.40;99.90;;;;;;3575662;40;20414;-61
2021/04/25 02:00:08;;;;;;;9.77;3.97;;;4.40;99.90;;;;;;3576833;40;20031;-60
2021/04/25 02:02:38;;;;;;;4.78;2.60;;;4.40;99.90;;;;;;3577310;40;20040;-61
2021/04/25 02:05:04;;;;;;;9.13;2.78;;;4.40;99.90;;;;;;3575421;40;20118;-60
2021/04/25 02:07:30;;;;;;;5.97;1.92;;;4.40;99.90;;;;;;3568613;40;20081;-60
2021/04/25 02:09:56;;;;;;;7.32;2.13;;;4.40;99.90;;;;;;3570001;40;20037;-61
2021/04/25 02:12:21;;;;;;;6.95;2.63;;;4.40;99.90;;;;;;3575399;40;20800;-61
2021/04/25 02:14:47;;;;;;;6.53;2.30;;;4.30;99.90;;;;;;3574977;40;20084;-61
2021/04/25 02:17:13;;;;;;;7.75;2.60;;;4.30;99.90;;;;;;3574648;40;20114;-61
2021/04/25 02:19:39;;;;;;;8.73;2.50;;;4.30;99.90;;;;;;3573479;40;20028;-61
2021/04/25 02:22:05;;;;;;;6.07;2.47;;;4.30;99.90;;;;;;3572777;40;20048;-61
2021/04/25 02:24:31;;;;;;;4.72;2.42;;;4.30;99.90;;;;;;3572444;40;20415;-64
2021/04/25 02:26:57;;;;;;;6.60;2.45;;;4.30;99.90;;;;;;3571531;40;20044;-61
2021/04/25 02:29:23;;;;;;;8.57;3.70;;;4.40;99.90;;;;;;3570682;40;20685;-61
2021/04/25 02:31:49;;;;;;;10.02;3.30;;;4.40;99.90;;;;;;3569918;40;20043;-61
2021/04/25 02:34:15;;;;;;;10.02;3.70;;;4.50;99.90;;;;;;3569581;40;20037;-60
2021/04/25 02:36:41;;;;;;;5.28;2.88;;;4.60;99.90;;;;;;3570297;40;20691;-60
2021/04/25 02:39:07;;;;;;;9.45;3.22;;;4.70;99.90;;;;;;3570647;40;20029;-61
2021/04/25 02:41:33;;;;;;;7.20;2.70;;;4.70;99.90;;;;;;3571401;40;20055;-60
2021/04/25 02:43:59;;;;;;;7.28;2.63;;;4.80;99.90;;;;;;3570905;40;20052;-61
2021/04/25 02:46:25;;;;;;;7.63;3.05;;;4.80;99.90;;;;;;3572683;40;20036;-61
2021/04/25 02:48:51;;;;;;;12.60;2.72;;;4.90;99.90;;;;;;3572948;40;20604;-61
2021/04/25 02:51:18;;;;;;;8.20;3.03;;;4.90;99.90;;;;;;3574384;40;20882;-61
2021/04/25 02:53:43;;;;;;;6.60;2.72;;;4.90;99.90;;;;;;3585266;39;20303;-60
2021/04/25 02:56:09;;;;;;;6.15;3.08;;;5.00;99.90;;;;;;3579924;40;20067;-61
2021/04/25 02:58:35;;;;;;;7.85;2.50;;;5.00;99.90;;;;;;3578715;40;20465;-61
2021/04/25 03:01:01;;;;;;;7.00;2.70;;;5.00;99.90;;;;;;3578219;40;20081;-60
2021/04/25 03:03:26;;;;;;;8.60;2.95;;;5.00;99.90;;;;;;3577897;40;20258;-60
2021/04/25 03:05:55;;;;;;;12.50;4.70;;;4.90;99.90;;;;;;3577951;40;20772;-60
2021/04/25 03:08:21;;;;;;;8.82;3.55;;;4.90;99.90;;;;;;3574560;40;20511;-60
2021/04/25 03:10:47;;;;;;;10.13;3.67;;;4.90;99.90;;;;;;3573817;40;20876;-60
2021/04/25 03:13:13;;;;;;;11.50;3.45;;;4.90;99.90;;;;;;3574717;40;20056;-60
2021/04/25 03:15:38;;;;;;;8.27;3.63;;;4.90;99.90;;;;;;3575741;40;20043;-60
2021/04/25 03:18:04;;;;;;;6.85;3.13;;;4.90;99.90;;;;;;3575573;40;20065;-60
2021/04/25 03:20:30;;;;;;;7.68;3.00;;;4.90;99.90;;;;;;3582849;39;20037;-60
2021/04/25 03:22:56;;;;;;;6.38;2.53;;;4.90;99.90;;;;;;3575369;40;20030;-60
2021/04/25 03:25:22;;;;;;;7.15;3.75;;;4.90;99.90;;;;;;3574930;40;20020;-60
2021/04/25 03:27:48;;;;;;;6.45;2.50;;;4.90;99.90;;;;;;3581647;40;20057;-60
2021/04/25 03:30:15;;;;;;;5.72;2.38;;;4.90;99.90;;;;;;3577944;40;20033;-60
2021/04/25 03:32:41;;;;;;;6.00;3.58;;;4.90;99.90;;;;;;3582280;40;20090;-60
2021/04/25 03:35:09;;;;;;;5.50;2.80;;;4.90;99.90;;;;;;3581820;39;20426;-60
2021/04/25 03:37:36;;;;;;;7.65;2.70;;;4.80;99.90;;;;;;3579520;40;20082;-60
2021/04/25 03:40:04;;;;;;;5.75;2.85;;;4.90;99.90;;;;;;3575040;40;20182;-60
2021/04/25 03:42:30;;;;;;;7.63;3.33;;;4.80;99.90;;;;;;3587124;39;20040;-60
2021/04/25 03:44:55;;;;;;;6.22;2.72;;;4.80;99.90;;;;;;3578869;40;20051;-60
2021/04/25 03:47:21;;;;;;;5.53;3.28;;;4.80;99.90;;;;;;3576970;40;20064;-60
2021/04/25 03:49:47;;;;;;;8.35;3.25;;;4.80;99.90;;;;;;3580191;40;20552;-60
2021/04/25 03:52:13;;;;;;;8.90;3.35;;;4.90;99.90;;;;;;3580401;40;20346;-60
2021/04/25 03:54:40;;;;;;;12.07;3.85;;;4.90;99.90;;;;;;3579347;40;20045;-60
2021/04/25 03:57:06;;;;;;;12.70;3.70;;;5.00;99.90;;;;;;3582421;40;20080;-60
2021/04/25 03:59:33;;;;;;;7.82;3.40;;;5.10;99.90;;;;;;3583202;39;20037;-60
2021/04/25 04:01:59;;;;;;;13.60;3.95;;;5.10;99.90;;;;;;3581196;40;20079;-61
2021/04/25 04:04:24;;;;;;;8.40;3.67;;;5.10;99.90;;;;;;3581222;40;20037;-61
2021/04/25 04:06:50;;;;;;;14.50;6.18;;;5.10;99.90;;;;;;3579383;40;20051;-61
2021/04/25 04:09:17;;;;;;;6.75;3.75;;;5.20;99.90;;;;;;3579462;40;20062;-61
2021/04/25 04:11:44;;;;;;;11.57;4.38;;;5.10;99.90;;;;;;3585892;40;20082;-61
2021/04/25 04:14:09;;;;;;;11.57;4.60;;;5.10;99.90;;;;;;3581213;40;20040;-61
2021/04/25 04:16:35;;;;;;;11.23;4.50;;;5.10;99.90;;;;;;3579122;40;20040;-61
2021/04/25 04:19:00;;;;;;;14.07;4.70;;;5.00;99.90;;;;;;3580787;40;20040;-61
2021/04/25 04:21:27;;;;;;;10.00;3.72;;;5.00;99.90;;;;;;3578433;40;20570;-61
2021/04/25 04:23:52;;;;;;;10.38;4.20;;;5.10;99.90;;;;;;3579345;40;20052;-61
2021/04/25 04:26:18;;;;;;;9.85;3.80;;;5.10;99.90;;;;;;3581995;40;20537;-62
2021/04/25 04:28:44;;;;;;;6.93;3.75;;;5.20;99.90;;;;;;3579798;40;20167;-61
2021/04/25 04:31:09;;;;;;;12.10;4.50;;;5.10;99.90;;;;;;3584095;40;20106;-60
2021/04/25 04:33:36;;;;;;;9.23;3.65;;;5.00;99.90;;;;;;3581224;40;20068;-61
2021/04/25 04:36:03;;;;;;;8.30;3.35;;;5.10;99.90;;;;;;3583602;39;20032;-61
2021/04/25 04:38:29;;;;;;;9.68;3.60;;;5.10;99.90;;;;;;3582179;40;20313;-61
2021/04/25 04:40:56;;;;;;;7.60;3.78;;;5.00;99.90;;;;;;3579497;40;20037;-61
2021/04/25 04:43:23;;;;;;;8.32;4.03;;;5.10;99.90;;;;;;3580956;40;20119;-61
2021/04/25 04:45:48;;;;;;;8.63;3.88;;;5.20;99.90;;;;;;3581197;40;20060;-61
2021/04/25 04:48:14;;;;;;;9.18;3.78;;;5.20;99.90;;;;;;3581016;40;20048;-61
2021/04/25 04:50:40;;;;;;;9.75;3.78;;;5.30;99.90;;;;;;3579570;40;20052;-62
2021/04/25 04:53:05;;;;;;;10.45;4.47;;;5.30;99.90;;;;;;3578756;40;20035;-61
2021/04/25 04:55:31;;;;;;;15.23;4.30;;;5.40;99.90;;;;;;3580679;40;20040;-61
2021/04/25 04:57:57;;;;;;;14.90;4.28;;;5.40;99.90;;;;;;3578798;40;20040;-61
2021/04/25 05:00:22;;;;;;;15.40;4.35;;;5.50;99.90;;;;;;3576045;40;20017;-61
2021/04/25 05:02:48;;;;;;;8.15;4.13;;;5.50;99.90;;;;;;3580233;40;20051;-60
2021/04/25 05:05:14;;;;;;;17.73;6.97;;;5.60;99.90;;;;;;3581600;40;20528;-61
2021/04/25 05:07:40;;;;;;;10.02;3.88;;;5.60;99.90;;;;;;3583948;40;20032;-60
2021/04/25 05:10:06;;;;;;;17.38;6.18;;;5.70;99.90;;;;;;3579899;40;20057;-61
2021/04/25 05:12:32;;;;;;;8.38;3.85;;;5.70;99.90;;;;;;3579448;40;20057;-61
2021/04/25 05:14:58;;;;;;;16.83;7.35;;;5.80;99.90;;;;;;3581194;40;20068;-61
2021/04/25 05:17:24;;;;;;;11.85;4.85;;;5.90;99.90;;;;;;3580131;40;20031;-61
2021/04/25 05:19:49;;;;;;;8.02;3.70;;;6.00;99.90;;;;;;3574923;40;20134;-61
2021/04/25 05:22:15;;;;;;;7.72;3.85;;;6.00;99.90;;;;;;3578270;40;20543;-62
2021/04/25 05:24:41;;;;;;;8.93;3.70;;;6.10;99.90;;;;;;3580656;40;20403;-60
2021/04/25 05:27:07;;;;;;;10.38;4.07;;;6.20;99.90;;;;;;3581635;39;20045;-60
2021/04/25 05:29:32;;;;;;;8.88;4.00;;;6.20;99.90;;;;;;3579309;40;20063;-60
2021/04/25 05:32:00;;;;;;;8.75;3.58;;;6.20;99.90;;;;;;3584432;40;20028;-60
2021/04/25 05:34:26;;;;;;;9.30;3.50;;;6.20;99.90;;;;;;3576594;39;20077;-60
2021/04/25 05:36:52;;;;;;;9.48;3.55;;;6.40;99.90;;;;;;3582049;40;20923;-60
2021/04/25 05:39:18;;;;;;;8.07;3.53;;;6.40;99.90;;;;;;3581987;40;20033;-60
2021/04/25 05:41:43;;;;;;;8.82;3.72;;;6.40;99.90;;;;;;3579284;40;20642;-60
2021/04/25 05:44:09;;;;;;;10.73;3.88;;;6.40;99.90;;;;;;3580334;40;20345;-60
2021/04/25 05:46:35;;;;;;;8.93;3.50;;;6.50;99.90;;;;;;3578434;39;20060;-60
2021/04/25 05:49:02;;;;;;;7.25;3.75;;;6.60;99.90;;;;;;3572786;40;20048;-60
2021/04/25 05:51:27;;;;;;;7.43;3.50;;;6.80;99.90;;;;;;3582014;40;20037;-60
2021/04/25 05:53:53;;;;;;;7.13;3.70;;;6.80;99.90;;;;;;3583855;40;20632;-60
2021/04/25 05:56:20;;;;;;;10.73;3.40;;;6.90;99.90;;;;;;3580891;40;20048;-60
2021/04/25 05:58:46;;;;;;;8.25;3.50;;;7.00;99.90;;;;;;3581940;40;20538;-60
2021/04/25 06:01:12;;;;;;;7.97;3.80;;;7.10;99.90;;;;;;3579972;40;20063;-60
2021/04/25 06:03:38;;;;;;;8.20;3.70;;;7.10;99.90;;;;;;3585197;40;20485;-60
2021/04/25 06:06:04;;;;;;;9.60;3.83;;;7.00;99.90;;;;;;3580884;40;20060;-62
2021/04/25 06:08:30;;;;;;;11.25;3.60;;;7.10;99.90;;;;;;3578928;40;20040;-61
2021/04/25 06:10:56;;;;;;;10.75;3.63;;;7.30;99.90;;;;;;3578668;39;20029;-61
2021/04/25 06:13:22;;;;;;;7.47;3.42;;;7.00;99.90;;;;;;3584582;40;20035;-61
2021/04/25 06:15:47;;;;;;;7.82;3.17;;;7.00;99.90;;;;;;3577361;40;20040;-63
2021/04/25 06:18:13;;;;;;;9.55;3.20;;;7.20;99.90;;;;;;3573819;40;20143;-61
2021/04/25 06:20:39;;;;;;;11.40;3.50;;;7.30;99.90;;;;;;3580528;40;20043;-61
2021/04/25 06:23:04;;;;;;;11.15;3.25;;;7.30;99.90;;;;;;3578494;40;20604;-61
2021/04/25 06:25:30;;;;;;;8.93;3.22;;;7.30;99.90;;;;;;3579764;40;20021;-61
2021/04/25 06:27:56;;;;;;;10.45;2.70;;;7.30;99.90;;;;;;3580459;40;20059;-63
2021/04/25 06:30:22;;;;;;;6.03;2.70;;;7.40;99.90;;;;;;3583033;40;20383;-61
2021/04/25 06:32:48;;;;;;;8.23;3.60;;;7.60;99.90;;;;;;3579243;40;20117;-61
2021/04/25 06:35:15;;;;;;;9.13;3.17;;;7.60;99.90;;;;;;3579980;40;20311;-61
2021/04/25 06:37:44;;;;;;;6.68;3.08;;;7.90;99.80;;;;;;3582661;40;20044;-61
2021/04/25 06:40:10;;;;;;;7.65;2.70;;;7.90;99.90;;;;;;3581778;40;20798;-61
2021/04/25 06:42:39;;;;;;;7.45;2.60;;;7.90;99.40;;;;;;3585404;40;20062;-61
2021/04/25 06:45:10;;;;;;;7.20;2.58;;;8.00;99.00;;;;;;3579854;40;20039;-61
2021/04/25 06:47:36;;;;;;;7.05;2.80;;;8.00;97.90;;;;;;3584433;40;20120;-61
2021/04/25 06:50:02;;;;;;;6.10;2.38;;;8.00;97.60;;;;;;3583446;40;20044;-61
2021/04/25 06:52:28;;;;;;;6.07;2.72;;;8.10;97.30;;;;;;3583437;39;20053;-61
2021/04/25 06:54:54;;;;;;;5.82;2.42;;;8.20;97.90;;;;;;3581511;40;20082;-61
2021/04/25 06:57:19;;;;;;;4.43;2.33;;;8.30;97.90;;;;;;3583789;39;20043;-61
2021/04/25 06:59:45;;;;;;;6.70;2.88;;;8.40;97.70;;;;;;3585489;40;20058;-61
2021/04/25 07:02:11;;;;;;;9.77;2.90;;;8.30;98.10;;;;;;3576900;40;20029;-61
2021/04/25 07:04:39;;;;;;;6.57;3.00;;;8.30;98.60;;;;;;3584192;40;20040;-61
2021/04/25 07:07:04;;;;;;;7.18;2.95;;;8.20;98.90;;;;;;3581755;40;20029;-61
2021/04/25 07:09:30;;;;;;;8.43;3.08;;;8.10;99.10;;;;;;3585573;39;20047;-61
2021/04/25 07:11:56;;;;;;;4.97;2.80;;;7.90;99.80;;;;;;3579784;40;20039;-61
2021/04/25 07:14:21;;;;;;;7.10;3.00;;;8.20;99.50;;;;;;3584284;40;20041;-61
2021/04/25 07:16:47;;;;;;;10.48;4.32;;;8.50;99.70;;;;;;3581401;40;20052;-61
2021/04/25 07:19:13;;;;;;;10.10;3.38;;;8.90;98.00;;;;;;3580159;40;20109;-61
2021/04/25 07:21:38;;;;;;;8.25;2.85;;;9.20;97.80;;;;;;3576541;40;20117;-61
2021/04/25 07:24:05;;;;;;;6.72;3.10;;;9.30;97.00;;;;;;3581101;40;20040;-63
2021/04/25 07:26:30;;;;;;;8.00;3.13;;;9.30;97.00;;;;;;3581607;40;20672;-61
2021/04/25 07:28:56;;;;;;;6.63;3.08;;;9.40;97.70;;;;;;3581220;40;20049;-61
2021/04/25 07:31:22;;;;;;;5.95;2.75;;;9.40;96.40;;;;;;3582821;40;20041;-61
2021/04/25 07:33:47;;;;;;;6.55;3.25;;;9.50;96.50;;;;;;3581476;40;20295;-61
2021/04/25 07:36:13;;;;;;;18.70;7.97;;;9.60;96.30;;;;;;3581231;40;20052;-61
2021/04/25 07:38:40;;;;;;;7.07;3.92;;;9.40;96.70;;;;;;3579041;40;20036;-61
2021/04/25 07:41:07;;;;;;;8.05;4.18;;;9.40;97.60;;;;;;3577093;40;20045;-61
2021/04/25 07:43:33;;;;;;;10.27;3.50;;;9.70;96.90;;;;;;3581838;40;20044;-61
2021/04/25 07:45:59;;;;;;;9.27;3.05;;;9.80;96.30;;;;;;3580261;40;20041;-61
2021/04/25 07:48:25;;;;;;;14.30;3.72;;;9.40;96.30;;;;;;3577508;40;20850;-61
2021/04/25 07:50:51;;;;;;;13.73;5.75;;;9.40;95.50;;;;;;3580396;40;20083;-61
2021/04/25 07:53:17;;;;;;;9.10;3.50;;;9.70;96.70;;;;;;3575406;40;20045;-61
2021/04/25 07:55:44;;;;;;;8.75;3.13;;;10.20;94.60;;;;;;3581248;39;20044;-62
2021/04/25 07:58:10;;;;;;;12.18;4.82;;;10.40;94.20;;;;;;3574672;39;20109;-62
2021/04/25 08:00:36;;;;;;;7.40;3.50;;;10.50;94.00;;;;;;3575282;39;20060;-61
2021/04/25 08:03:04;;;;;;;12.10;3.40;;;10.40;93.90;;;;;;3576203;40;20025;-61
2021/04/25 08:05:29;;;;;;;7.97;4.50;;;10.30;94.20;;;;;;3584516;40;20106;-62
2021/04/25 08:07:55;;;;;;;9.25;3.42;;;10.30;94.20;;;;;;3581402;40;20017;-61
2021/04/25 08:10:21;;;;;;;8.10;2.88;;;10.40;94.00;;;;;;3580406;40;20024;-61
2021/04/25 08:12:47;;;;;;;7.07;2.80;;;10.40;93.10;;;;;;3580030;40;20040;-61
2021/04/25 08:15:13;;;;;;;6.55;3.35;;;10.50;91.90;;;;;;3581592;40;20041;-61
2021/04/25 08:17:39;;;;;;;10.32;3.63;;;10.60;92.20;;;;;;3579035;40;20048;-60
2021/04/25 08:20:06;;;;;;;8.43;3.00;;;10.40;93.40;;;;;;3585733;39;20604;-63
2021/04/25 08:22:32;;;;;;;11.38;3.28;;;10.40;93.10;;;;;;3581296;40;20097;-60
2021/04/25 08:24:58;;;;;;;6.75;2.75;;;10.40;92.70;;;;;;3584005;39;20036;-61
2021/04/25 08:27:24;;;;;;;7.03;3.58;;;10.60;92.70;;;;;;3579906;39;20083;-60
2021/04/25 08:29:50;;;;;;;7.70;3.17;;;10.70;92.30;;;;;;3584132;40;20080;-60
2021/04/25 08:32:15;;;;;;;8.25;3.15;;;10.80;92.40;;;;;;3582078;40;20032;-60
2021/04/25 08:34:41;;;;;;;11.35;3.20;;;10.90;91.30;;;;;;3582030;39;20140;-61
2021/04/25 08:37:07;;;;;;;5.63;2.72;;;11.10;89.30;;;;;;3584893;40;20033;-60
2021/04/25 08:39:33;;;;;;;6.57;3.15;;;11.30;87.40;;;;;;3583089;40;20052;-60
2021/04/25 08:41:59;;;;;;;6.43;2.50;;;11.30;86.50;;;;;;3584675;39;20036;-60
2021/04/25 08:44:25;;;;;;;5.80;2.50;;;11.20;86.50;;;;;;3595401;39;20040;-60
2021/04/25 08:46:53;;;;;;;6.03;3.20;;;11.00;85.90;;;;;;3581602;39;20266;-60
2021/04/25 08:49:25;;;;;;;6.10;3.17;;;11.20;90.50;;;;;;3581490;40;20422;-60
2021/04/25 08:51:52;;;;;;;7.55;3.33;;;11.80;88.70;;;;;;3577522;40;20147;-60
2021/04/25 08:54:25;;;;;;;5.70;2.85;;;12.50;81.30;;;;;;3583519;39;20519;-60
2021/04/25 08:56:52;;;;;;;8.93;2.30;;;12.60;75.40;;;;;;3579575;40;20110;-61
2021/04/25 08:59:18;;;;;;;5.80;2.70;;;12.40;74.60;;;;;;3587992;39;20330;-60
2021/04/25 09:01:44;;;;;;;7.60;3.08;;;12.30;73.20;;;;;;3580233;40;20045;-60
2021/04/25 09:04:10;;;;;;;7.97;3.10;;;11.80;75.70;;;;;;3579274;40;20522;-60
2021/04/25 09:06:55;;;;;;;7.43;3.47;;;11.90;78.00;;;;;;3581805;40;20033;-61
2021/04/25 09:09:21;;;;;;;6.80;3.50;;;12.20;76.30;;;;;;3580544;40;20480;-60
2021/04/25 09:11:49;;;;;;;8.77;4.00;;;12.50;75.10;;;;;;3583736;40;20024;-60
2021/04/25 09:14:19;;;;;;;6.82;4.07;;;12.60;74.20;;;;;;3581835;39;20561;-61
2021/04/25 09:16:54;;;;;;;12.35;3.17;;;12.40;74.70;;;;;;3581283;40;20028;-60
2021/04/25 09:19:21;;;;;;;5.05;2.85;;;12.00;79.80;;;;;;3582204;40;20032;-62
2021/04/25 09:21:52;;;;;;;8.20;3.28;;;11.90;79.60;;;;;;3580854;40;20012;-61
2021/04/25 09:24:25;;;;;;;6.57;3.45;;;12.40;75.20;;;;;;3577718;39;20040;-60
2021/04/25 09:26:52;;;;;;;6.15;3.45;;;12.40;75.40;;;;;;3580173;40;20046;-61
2021/04/25 09:29:21;;;;;;;8.38;3.40;;;12.70;77.40;;;;;;3582058;40;20097;-60
2021/04/25 09:31:47;;;;;;;6.07;2.40;;;13.20;73.00;;;;;;3573951;40;20695;-60
2021/04/25 09:34:26;;;;;;;5.47;2.22;;;13.60;69.80;;;;;;3581247;40;20085;-60
2021/04/25 09:36:53;;;;;;;7.00;2.55;;;13.80;65.80;;;;;;3577005;39;20077;-60
2021/04/25 09:39:19;;;;;;;9.93;2.28;;;13.60;63.90;;;;;;3583653;40;20032;-60
2021/04/25 09:41:46;;;;;;;7.50;2.42;;;13.00;66.60;;;;;;3576765;40;20039;-61
2021/04/25 09:44:36;;;;;;;5.70;2.70;;;12.60;65.40;;;;;;3581587;40;20039;-60
2021/04/25 09:47:04;;;;;;;9.93;2.75;;;11.60;69.10;;;;;;3579267;39;20102;-60
2021/04/25 09:49:45;;;;;;;4.55;2.08;;;11.30;73.20;;;;;;3580712;39;20064;-60
2021/04/25 09:52:13;;;;;;;5.45;2.40;;;11.00;72.20;;;;;;3571223;40;20041;-60
2021/04/25 09:54:40;;;;;;;4.13;2.40;;;10.70;73.60;;;;;;3575238;40;20032;-60
2021/04/25 09:57:07;;;;;;;4.30;2.83;;;10.70;74.40;;;;;;3581801;39;20058;-61
2021/04/25 09:59:48;;;;;;;8.15;2.78;;;10.50;78.00;;;;;;3574193;40;20036;-60
2021/04/25 10:02:14;;;;;;;3.40;1.98;;;10.30;78.50;;;;;;3576985;40;20051;-60
2021/04/25 10:04:40;;;;;;;7.40;2.13;;;10.20;81.20;;;;;;3577471;40;20061;-60
2021/04/25 10:07:07;;;;;;;14.57;5.28;;;10.10;83.10;;;;;;3579044;39;20040;-60
2021/04/25 10:09:34;;;;;;;4.30;2.20;;;9.80;90.40;;;;;;3577664;40;20110;-60
2021/04/25 10:12:02;;;;;;;10.52;2.45;;;9.70;93.30;;;;;;3573254;40;20418;-61
2021/04/25 10:14:30;;;;;;;8.38;2.60;;;9.40;96.10;;;;;;3578450;40;20035;-61
2021/04/25 10:16:57;;;;;;;11.98;4.75;;;9.20;98.40;;;;;;3579255;39;20036;-61
2021/04/25 10:19:24;;;;;;;8.73;3.42;;;9.10;99.40;;;;;;3579239;40;20040;-61
2021/04/25 10:21:51;;;;;;;10.43;4.70;;;9.10;98.90;;;;;;3577390;40;20032;-61
2021/04/25 10:24:21;;;;;;;9.20;3.70;;;9.20;98.10;;;;;;3579320;40;20043;-60
2021/04/25 10:27:02;;;;;;;29.75;11.57;;;9.30;97.90;;;;;;3578593;39;20053;-61
2021/04/25 10:29:42;;;;;;;9.95;4.13;;;9.50;97.70;;;;;;3577774;40;20029;-63
2021/04/25 10:32:09;;;;;;;29.90;10.95;;;9.80;95.50;;;;;;3577630;40;20076;-61
2021/04/25 10:34:35;;;;;;;10.25;3.95;;;10.10;95.60;;;;;;3577103;39;20090;-62
2021/04/25 10:37:09;;;;;;;8.35;2.80;;;10.30;94.70;;;;;;3580995;40;20049;-61
2021/04/25 10:39:38;;;;;;;6.00;2.60;;;10.00;93.80;;;;;;3572444;39;20029;-61
2021/04/25 10:44:59;;;;;;;14.55;4.93;;;10.00;94.50;;;;;;3581405;40;20171;-61
2021/04/25 10:47:26;;;;;;;5.55;2.17;;;10.00;94.60;;;;;;3571490;40;20127;-62
2021/04/25 10:49:54;;;;;;;6.88;2.72;;;9.90;93.00;;;;;;3577453;39;20044;-61
2021/04/25 10:52:26;;;;;;;4.68;2.13;;;10.00;93.50;;;;;;3576999;39;20029;-61
2021/04/25 10:55:10;;;;;;;5.80;2.00;;;10.10;92.70;;;;;;3572039;40;20056;-61
2021/04/25 10:57:59;;;;;;;11.35;3.42;;;10.50;89.40;;;;;;3572263;40;20041;-61
2021/04/25 11:03:12;;;;;;;6.32;2.80;;;11.00;70.20;;;;;;3573285;40;20037;-61
2021/04/25 11:05:41;;;;;;;4.63;1.48;;;11.70;68.60;;;;;;3576522;39;20044;-61
2021/04/25 11:08:16;;;;;;;5.25;1.10;;;11.70;63.00;;;;;;3579931;40;20041;-61
2021/04/25 11:10:56;;;;;;;9.63;1.48;;;11.80;62.20;;;;;;3578396;40;20039;-61
2021/04/25 11:13:45;;;;;;;8.05;4.28;;;11.50;61.60;;;;;;3576402;40;20033;-61
2021/04/25 11:16:16;;;;;;;10.00;6.18;;;12.30;63.70;;;;;;3574287;40;20370;-61
2021/04/25 11:19:08;;;;;;;5.70;1.83;;;13.40;61.30;;;;;;3585272;39;20043;-61
2021/04/25 11:21:42;;;;;;;5.07;1.73;;;14.10;57.90;;;;;;3574436;39;20037;-61
2021/04/25 11:24:07;;;;;;;4.93;1.67;;;14.40;56.50;;;;;;3581113;40;20048;-61
2021/04/25 11:26:42;;;;;;;4.82;1.50;;;14.00;57.10;;;;;;3579057;39;20032;-62
2021/04/25 11:29:13;;;;;;;6.32;3.38;;;14.20;56.60;;;;;;3571692;40;20037;-62
2021/04/25 11:31:48;;;;;;;5.45;1.60;;;14.80;55.70;;;;;;3574630;40;20041;-61
2021/04/25 11:34:30;;;;;;;5.07;2.25;;;15.90;51.20;;;;;;3574675;40;20037;-62
2021/04/25 11:36:58;;;;;;;3.67;1.13;;;15.20;51.70;;;;;;3576686;40;20036;-61
2021/04/25 11:39:33;;;;;;;5.72;1.67;;;14.60;52.90;;;;;;3576485;39;20099;-61
2021/04/25 11:42:01;;;;;;;3.28;2.00;;;14.70;51.40;;;;;;3580212;40;20040;-61
2021/04/25 11:44:29;;;;;;;3.13;1.60;;;14.40;53.80;;;;;;3574827;39;20229;-61
2021/04/25 11:46:57;;;;;;;4.70;2.10;;;14.20;52.00;;;;;;3573708;40;20045;-61
2021/04/25 11:49:32;;;;;;;3.50;1.73;;;14.00;54.70;;;;;;3571428;40;20036;-61
2021/04/25 11:52:09;;;;;;;6.45;4.18;;;13.70;53.00;;;;;;3576125;40;20029;-61
2021/04/25 11:54:36;;;;;;;3.78;1.48;;;13.60;52.80;;;;;;3573473;40;20426;-61
2021/04/25 11:57:13;;;;;;;8.13;2.75;;;13.60;53.60;;;;;;3581830;39;20093;-61
2021/04/25 12:00:08;;;;;;;7.43;1.77;;;13.90;54.40;;;;;;3572249;40;20072;-61
2021/04/25 12:02:46;;;;;;;3.60;1.40;;;14.40;52.30;;;;;;3577831;40;20487;-61
2021/04/25 12:05:21;;;;;;;4.82;2.65;;;14.80;54.00;;;;;;3574165;40;20048;-62
2021/04/25 12:07:51;;;;;;;3.72;1.15;;;15.40;51.40;;;;;;3578155;40;20113;-61
2021/04/25 12:10:30;;;;;;;6.95;2.10;;;15.80;47.70;;;;;;3572766;39;20033;-62
2021/04/25 12:13:13;;;;;;;6.70;1.50;;;15.50;49.10;;;;;;3576422;40;20715;-61
2021/04/25 12:15:47;;;;;;;2.05;1.35;;;14.90;48.00;;;;;;3572484;40;20068;-61
2021/04/25 12:18:14;;;;;;;5.38;1.48;;;14.00;51.40;;;;;;3580043;40;20052;-61
2021/04/25 12:20:52;;;;;;;3.25;1.75;;;13.60;52.70;;;;;;3571778;39;20029;-61
2021/04/25 12:23:20;;;;;;;3.88;1.50;;;13.10;50.00;;;;;;3578509;40;20879;-61
2021/04/25 12:25:48;;;;;;;8.00;4.93;;;12.80;49.90;;;;;;3578404;40;20045;-61
2021/04/25 12:28:14;;;;;;;11.30;6.50;;;12.60;51.40;;;;;;3574580;40;20767;-62
2021/04/25 12:30:44;;;;;;;5.20;2.35;;;12.40;50.70;;;;;;3571527;40;20040;-60
2021/04/25 12:33:18;;;;;;;4.85;2.75;;;12.30;51.50;;;;;;3574230;40;20048;-60
2021/04/25 12:35:47;;;;;;;2.25;1.30;;;12.30;50.60;;;;;;3575507;40;20033;-60
2021/04/25 12:38:29;;;;;;;3.28;1.27;;;12.30;47.70;;;;;;3572798;40;20139;-63
2021/04/25 12:41:01;;;;;;;3.00;1.10;;;12.60;47.80;;;;;;3576000;40;20134;-61
2021/04/25 12:43:29;;;;;;;1.58;1.08;;;12.70;48.60;;;;;;3576777;40;20030;-61
2021/04/25 12:45:56;;;;;;;5.80;0.95;;;13.10;48.80;;;;;;3583844;40;20043;-61
2021/04/25 12:48:28;;;;;;;1.58;0.88;;;13.40;47.80;;;;;;3571081;40;20051;-61
2021/04/25 12:51:05;;;;;;;4.88;0.93;;;13.70;46.90;;;;;;3571957;40;20618;-61
2021/04/25 12:53:32;;;;;;;2.30;0.90;;;13.50;46.80;;;;;;3568424;40;20142;-61
2021/04/25 12:56:19;;;;;;;9.70;5.05;;;13.60;47.00;;;;;;3572989;39;20088;-61
2021/04/25 12:59:03;;;;;;;3.28;1.10;;;14.00;46.30;;;;;;3574320;40;20083;-62